createdAt,value
2018-02-25T00:00:50.778Z,102398.39
2018-02-25T00:01:54.097Z,102404.48
2018-02-25T00:02:57.433Z,102401.88
2018-02-25T00:04:00.749Z,102401.88
2018-02-25T00:05:04.071Z,102403.18
2018-02-25T00:06:07.402Z,102407.96
2018-02-25T00:07:10.975Z,102410.58
2018-02-25T00:08:14.293Z,102411.44
2018-02-25T00:09:17.604Z,102411.88
2018-02-25T00:10:21.284Z,102416.23
2018-02-25T00:11:24.665Z,102413.62
2018-02-25T00:12:28.105Z,102412.75
2018-02-25T00:13:31.401Z,102412.34
2018-02-25T00:14:34.730Z,102419.31
2018-02-25T00:15:38.103Z,102422.35
2018-02-25T00:16:41.398Z,102423.66
2018-02-25T00:17:44.784Z,102423.23
2018-02-25T00:18:48.101Z,102424.56
2018-02-25T00:19:51.426Z,102419.34
2018-02-25T00:20:54.802Z,102416.73
2018-02-25T00:21:58.158Z,102417.17
2018-02-25T00:23:01.566Z,102425.03
2018-02-25T00:24:04.908Z,102421.55
2018-02-25T00:25:08.220Z,102419.34
2018-02-25T00:26:11.627Z,102416.30
2018-02-25T00:27:14.926Z,102421.05
2018-02-25T00:28:18.430Z,102427.57
2018-02-25T00:29:21.834Z,102424.53
2018-02-25T00:30:25.141Z,102430.62
2018-02-25T00:31:28.444Z,102426.27
2018-02-25T00:32:31.768Z,102425.00
2018-02-25T00:33:35.164Z,102431.09
2018-02-25T00:34:38.600Z,102431.95
2018-02-25T00:35:41.888Z,102432.42
2018-02-25T00:36:45.323Z,102427.64
2018-02-25T00:37:48.681Z,102431.56
2018-02-25T00:38:52.008Z,102440.72
2018-02-25T00:39:55.368Z,102431.59
2018-02-25T00:40:58.755Z,102428.15
2018-02-25T00:42:02.063Z,102434.23
2018-02-25T00:43:05.553Z,102427.75
2018-02-25T00:44:08.938Z,102435.58
2018-02-25T00:45:12.355Z,102431.27
2018-02-25T00:46:15.670Z,102430.83
2018-02-25T00:47:18.964Z,102435.17
2018-02-25T00:48:22.277Z,102449.52
2018-02-25T00:49:25.638Z,102435.61
2018-02-25T00:50:29.041Z,102438.69
2018-02-25T00:51:32.393Z,102439.12
2018-02-25T00:52:35.690Z,102445.20
2018-02-25T00:53:39.096Z,102442.59
2018-02-25T00:54:42.479Z,102441.76
2018-02-25T00:55:45.936Z,102443.06
2018-02-25T00:56:49.325Z,102436.11
2018-02-25T00:57:52.711Z,102434.37
2018-02-25T00:58:56.065Z,102435.23
2018-02-25T00:59:59.379Z,102443.09
2018-02-25T01:01:02.736Z,102443.53
2018-02-25T01:02:06.047Z,102445.27
2018-02-25T01:03:09.389Z,102439.19
2018-02-25T01:04:12.765Z,102441.83
2018-02-25T01:05:16.105Z,102447.47
2018-02-25T01:06:19.414Z,102444.86
2018-02-25T01:07:22.796Z,102440.95
2018-02-25T01:08:26.256Z,102442.72
2018-02-25T01:09:29.557Z,102445.33
2018-02-25T01:10:33.006Z,102452.28
2018-02-25T01:11:36.353Z,102447.50
2018-02-25T01:12:39.648Z,102446.23
2018-02-25T01:13:42.957Z,102452.31
2018-02-25T01:14:46.539Z,102454.48
2018-02-25T01:15:49.897Z,102447.97
2018-02-25T01:16:53.241Z,102455.36
2018-02-25T01:17:56.597Z,102453.61
2018-02-25T01:18:59.911Z,102448.44
2018-02-25T01:20:03.250Z,102453.65
2018-02-25T01:21:06.670Z,102449.73
2018-02-25T01:22:09.996Z,102459.73
2018-02-25T01:23:13.368Z,102458.02
2018-02-25T01:24:16.678Z,102455.41
2018-02-25T01:25:19.971Z,102454.55
2018-02-25T01:26:23.441Z,102450.63
2018-02-25T01:27:26.812Z,102452.84
2018-02-25T01:28:30.200Z,102449.80
2018-02-25T01:29:33.679Z,102441.97
2018-02-25T01:30:36.985Z,102449.36
2018-02-25T01:31:40.364Z,102452.43
2018-02-25T01:32:43.780Z,102446.78
2018-02-25T01:33:47.159Z,102455.03
2018-02-25T01:34:50.480Z,102447.21
2018-02-25T01:35:53.932Z,102447.64
2018-02-25T01:36:57.341Z,102444.20
2018-02-25T01:38:00.715Z,102445.50
2018-02-25T01:39:04.011Z,102446.84
2018-02-25T01:40:07.430Z,102443.80
2018-02-25T01:41:10.741Z,102442.49
2018-02-25T01:42:14.069Z,102444.23
2018-02-25T01:43:17.440Z,102445.53
2018-02-25T01:44:20.742Z,102446.40
2018-02-25T01:45:24.094Z,102458.16
2018-02-25T01:46:27.394Z,102447.30
2018-02-25T01:47:30.717Z,102442.98
2018-02-25T01:48:34.042Z,102444.72
2018-02-25T01:49:37.407Z,102449.92
2018-02-25T01:50:52.702Z,102445.17
2018-02-25T01:51:56.050Z,102439.13
2018-02-25T01:52:59.378Z,102442.56
2018-02-25T01:54:02.689Z,102435.64
2018-02-25T01:55:06.137Z,102435.21
2018-02-25T01:56:09.492Z,102436.95
2018-02-25T01:57:12.936Z,102437.38
2018-02-25T01:58:16.288Z,102431.77
2018-02-25T01:59:19.650Z,102446.53
2018-02-25T02:00:23.006Z,102436.53
2018-02-25T02:01:26.331Z,102436.53
2018-02-25T02:02:29.663Z,102437.88
2018-02-25T02:03:33.013Z,102438.30
2018-02-25T02:04:36.397Z,102430.05
2018-02-25T02:05:40.072Z,102437.03
2018-02-25T02:06:43.444Z,102433.11
2018-02-25T02:07:46.891Z,102436.59
2018-02-25T02:08:50.612Z,102437.89
2018-02-25T02:09:53.952Z,102433.55
2018-02-25T02:10:57.347Z,102436.59
2018-02-25T02:12:00.748Z,102441.36
2018-02-25T02:13:04.106Z,102437.92
2018-02-25T02:14:07.513Z,102437.48
2018-02-25T02:15:11.228Z,102437.91
2018-02-25T02:16:14.612Z,102431.43
2018-02-25T02:17:18.032Z,102441.41
2018-02-25T02:18:21.382Z,102437.07
2018-02-25T02:19:24.794Z,102441.41
2018-02-25T02:20:28.089Z,102434.90
2018-02-25T02:21:31.474Z,102440.58
2018-02-25T02:22:34.792Z,102443.17
2018-02-25T02:23:38.171Z,102441.44
2018-02-25T02:24:41.528Z,102445.34
2018-02-25T02:25:44.853Z,102446.65
2018-02-25T02:26:48.271Z,102441.87
2018-02-25T02:27:51.591Z,102434.52
2018-02-25T02:28:54.919Z,102437.98
2018-02-25T02:29:58.243Z,102441.02
2018-02-25T02:31:01.548Z,102441.92
2018-02-25T02:32:05.224Z,102444.09
2018-02-25T02:33:08.570Z,102446.28
2018-02-25T02:34:11.936Z,102443.67
2018-02-25T02:35:15.349Z,102454.97
2018-02-25T02:36:18.770Z,102454.96
2018-02-25T02:37:22.065Z,102453.25
2018-02-25T02:38:25.430Z,102458.02
2018-02-25T02:39:28.769Z,102455.85
2018-02-25T02:40:32.197Z,102454.11
2018-02-25T02:41:35.504Z,102455.88
2018-02-25T02:42:38.900Z,102447.19
2018-02-25T02:43:42.311Z,102460.24
2018-02-25T02:44:45.612Z,102458.50
2018-02-25T02:45:48.978Z,102454.16
2018-02-25T02:46:52.335Z,102458.50
2018-02-25T02:47:55.641Z,102456.33
2018-02-25T02:48:59.108Z,102456.33
2018-02-25T02:50:02.425Z,102457.19
2018-02-25T02:51:05.875Z,102461.56
2018-02-25T02:52:09.274Z,102458.95
2018-02-25T02:53:12.602Z,102464.16
2018-02-25T02:54:16.087Z,102462.02
2018-02-25T02:55:19.397Z,102462.02
2018-02-25T02:56:22.761Z,102461.14
2018-02-25T02:57:26.127Z,102458.97
2018-02-25T02:58:29.434Z,102468.52
2018-02-25T02:59:32.757Z,102468.98
2018-02-25T03:00:36.085Z,102465.94
2018-02-25T03:01:40.330Z,102462.89
2018-02-25T03:02:43.726Z,102463.76
2018-02-25T03:03:47.429Z,102461.62
2018-02-25T03:04:50.855Z,102465.52
2018-02-25T03:05:54.379Z,102467.25
2018-02-25T03:06:57.817Z,102471.16
2018-02-25T03:08:01.498Z,102471.16
2018-02-25T03:09:04.961Z,102474.66
2018-02-25T03:10:08.429Z,102471.19
2018-02-25T03:11:11.944Z,102473.34
2018-02-25T03:12:15.318Z,102478.98
2018-02-25T03:13:18.888Z,102475.97
2018-02-25T03:14:22.364Z,102479.44
2018-02-25T03:15:25.783Z,102472.52
2018-02-25T03:16:29.484Z,102468.17
2018-02-25T03:17:32.950Z,102465.59
2018-02-25T03:18:36.389Z,102470.80
2018-02-25T03:19:39.842Z,102470.36
2018-02-25T03:20:43.330Z,102476.00
2018-02-25T03:21:46.812Z,102475.99
2018-02-25T03:22:50.282Z,102479.06
2018-02-25T03:23:53.770Z,102476.88
2018-02-25T03:24:57.176Z,102479.08
2018-02-25T03:26:00.666Z,102482.11
2018-02-25T03:27:04.045Z,102476.45
2018-02-25T03:28:07.543Z,102475.17
2018-02-25T03:29:10.997Z,102479.51
2018-02-25T03:30:14.412Z,102480.84
2018-02-25T03:31:17.789Z,102476.92
2018-02-25T03:32:21.184Z,102482.13
2018-02-25T03:33:24.706Z,102484.75
2018-02-25T03:34:28.167Z,102492.99
2018-02-25T03:35:31.753Z,102485.62
2018-02-25T03:36:35.208Z,102479.98
2018-02-25T03:37:38.623Z,102486.48
2018-02-25T03:38:42.183Z,102481.70
2018-02-25T03:39:45.536Z,102488.20
2018-02-25T03:40:49.091Z,102482.14
2018-02-25T03:41:52.453Z,102492.14
2018-02-25T03:42:55.854Z,102489.09
2018-02-25T03:43:59.277Z,102485.62
2018-02-25T03:45:02.799Z,102490.84
2018-02-25T03:46:06.276Z,102487.37
2018-02-25T03:47:09.734Z,102494.31
2018-02-25T03:48:13.199Z,102498.65
2018-02-25T03:49:16.715Z,102496.48
2018-02-25T03:50:20.073Z,102493.02
2018-02-25T03:51:23.400Z,102493.89
2018-02-25T03:52:26.698Z,102502.58
2018-02-25T03:53:30.130Z,102495.64
2018-02-25T03:54:33.466Z,102503.88
2018-02-25T03:55:36.777Z,102501.26
2018-02-25T03:56:40.097Z,102496.05
2018-02-25T03:57:43.445Z,102504.29
2018-02-25T03:58:46.851Z,102506.91
2018-02-25T03:59:50.319Z,102509.95
2018-02-25T04:00:53.630Z,102510.80
2018-02-25T04:01:56.993Z,102513.00
2018-02-25T04:03:00.425Z,102509.52
2018-02-25T04:04:03.769Z,102514.72
2018-02-25T04:05:07.098Z,102513.84
2018-02-25T04:06:10.474Z,102513.44
2018-02-25T04:07:13.774Z,102516.91
2018-02-25T04:08:17.279Z,102519.93
2018-02-25T04:09:20.665Z,102517.33
2018-02-25T04:10:23.998Z,102517.77
2018-02-25T04:11:27.328Z,102510.84
2018-02-25T04:12:30.840Z,102516.05
2018-02-25T04:13:34.176Z,102519.09
2018-02-25T04:14:37.567Z,102515.60
2018-02-25T04:15:41.119Z,102520.81
2018-02-25T04:16:44.499Z,102525.58
2018-02-25T04:17:47.878Z,102519.97
2018-02-25T04:18:51.258Z,102519.07
2018-02-25T04:19:54.573Z,102515.63
2018-02-25T04:20:57.942Z,102519.95
2018-02-25T04:22:01.324Z,102522.56
2018-02-25T04:23:04.657Z,102519.96
2018-02-25T04:24:07.987Z,102529.06
2018-02-25T04:25:11.308Z,102529.50
2018-02-25T04:26:14.737Z,102525.16
2018-02-25T04:27:18.056Z,102528.19
2018-02-25T04:28:21.382Z,102536.89
2018-02-25T04:29:24.693Z,102531.69
2018-02-25T04:30:27.999Z,102540.36
2018-02-25T04:31:31.396Z,102541.66
2018-02-25T04:32:34.849Z,102538.19
2018-02-25T04:33:38.166Z,102542.52
2018-02-25T04:34:41.701Z,102541.21
2018-02-25T04:35:44.988Z,102535.15
2018-02-25T04:36:48.465Z,102530.81
2018-02-25T04:37:51.836Z,102534.30
2018-02-25T04:38:55.149Z,102529.95
2018-02-25T04:39:58.468Z,102535.59
2018-02-25T04:41:01.787Z,102537.74
2018-02-25T04:42:05.205Z,102533.44
2018-02-25T04:43:08.647Z,102544.69
2018-02-25T04:44:11.972Z,102539.94
2018-02-25T04:45:15.299Z,102539.49
2018-02-25T04:46:18.642Z,102542.10
2018-02-25T04:47:21.973Z,102543.83
2018-02-25T04:48:25.286Z,102546.00
2018-02-25T04:49:28.596Z,102546.45
2018-02-25T04:50:31.924Z,102544.72
2018-02-25T04:51:35.292Z,102551.22
2018-02-25T04:52:38.705Z,102551.63
2018-02-25T04:53:42.118Z,102552.06
2018-02-25T04:54:45.424Z,102546.86
2018-02-25T04:55:48.791Z,102558.13
2018-02-25T04:56:52.160Z,102560.30
2018-02-25T04:57:55.480Z,102554.69
2018-02-25T04:58:58.811Z,102562.47
2018-02-25T05:00:02.117Z,102557.70
2018-02-25T05:01:05.745Z,102556.40
2018-02-25T05:02:09.072Z,102555.09
2018-02-25T05:03:12.499Z,102562.05
2018-02-25T05:04:15.814Z,102555.13
2018-02-25T05:05:19.159Z,102553.36
2018-02-25T05:06:22.463Z,102560.31
2018-02-25T05:07:25.788Z,102559.00
2018-02-25T05:08:29.289Z,102562.93
2018-02-25T05:09:32.589Z,102561.17
2018-02-25T05:10:35.906Z,102555.98
2018-02-25T05:11:39.333Z,102561.62
2018-02-25T05:12:42.833Z,102559.88
2018-02-25T05:13:46.271Z,102564.64
2018-02-25T05:14:49.676Z,102565.97
2018-02-25T05:15:53.044Z,102560.73
2018-02-25T05:16:56.389Z,102565.09
2018-02-25T05:17:59.712Z,102569.86
2018-02-25T05:19:03.034Z,102572.45
2018-02-25T05:20:06.458Z,102572.02
2018-02-25T05:21:09.766Z,102569.85
2018-02-25T05:22:13.112Z,102577.20
2018-02-25T05:23:16.661Z,102570.70
2018-02-25T05:24:20.032Z,102578.92
2018-02-25T05:25:23.433Z,102574.61
2018-02-25T05:26:26.777Z,102573.31
2018-02-25T05:27:30.108Z,102573.30
2018-02-25T05:28:33.491Z,102578.94
2018-02-25T05:29:36.972Z,102566.81
2018-02-25T05:30:40.296Z,102579.81
2018-02-25T05:31:43.675Z,102584.99
2018-02-25T05:32:47.007Z,102573.30
2018-02-25T05:33:50.416Z,102581.09
2018-02-25T05:34:53.827Z,102576.33
2018-02-25T05:35:57.142Z,102578.06
2018-02-25T05:37:00.570Z,102581.95
2018-02-25T05:38:03.976Z,102576.75
2018-02-25T05:39:07.291Z,102573.73
2018-02-25T05:40:10.629Z,102578.04
2018-02-25T05:41:13.986Z,102572.84
2018-02-25T05:42:17.360Z,102569.83
2018-02-25T05:43:20.761Z,102571.98
2018-02-25T05:44:24.058Z,102568.52
2018-02-25T05:45:27.469Z,102565.93
2018-02-25T05:46:30.885Z,102567.22
2018-02-25T05:47:34.197Z,102566.34
2018-02-25T05:48:37.636Z,102563.30
2018-02-25T05:49:41.030Z,102561.59
2018-02-25T05:50:47.345Z,102571.12
2018-02-25T05:51:50.679Z,102569.37
2018-02-25T05:52:54.011Z,102571.12
2018-02-25T05:53:57.410Z,102565.03
2018-02-25T05:55:00.753Z,102571.12
2018-02-25T05:56:04.108Z,102568.06
2018-02-25T05:57:07.419Z,102571.54
2018-02-25T05:58:10.773Z,102578.45
2018-02-25T05:59:14.100Z,102576.73
2018-02-25T06:00:17.422Z,102568.94
2018-02-25T06:01:20.749Z,102574.98
2018-02-25T06:02:24.075Z,102576.72
2018-02-25T06:03:27.500Z,102574.55
2018-02-25T06:04:30.817Z,102574.13
2018-02-25T06:05:34.128Z,102575.84
2018-02-25T06:06:37.556Z,102576.73
2018-02-25T06:07:41.060Z,102578.47
2018-02-25T06:08:44.600Z,102580.17
2018-02-25T06:09:47.918Z,102583.23
2018-02-25T06:10:51.315Z,102583.23
2018-02-25T06:11:54.651Z,102581.05
2018-02-25T06:12:58.032Z,102571.52
2018-02-25T06:14:01.419Z,102583.22
2018-02-25T06:15:04.724Z,102585.80
2018-02-25T06:16:08.041Z,102582.77
2018-02-25T06:17:11.445Z,102581.92
2018-02-25T06:18:14.839Z,102583.66
2018-02-25T06:19:18.212Z,102586.24
2018-02-25T06:20:21.570Z,102588.41
2018-02-25T06:21:24.885Z,102581.48
2018-02-25T06:22:28.310Z,102590.15
2018-02-25T06:23:31.678Z,102592.32
2018-02-25T06:24:35.084Z,102581.94
2018-02-25T06:25:38.434Z,102584.53
2018-02-25T06:26:41.797Z,102584.51
2018-02-25T06:27:45.167Z,102595.33
2018-02-25T06:28:48.489Z,102600.98
2018-02-25T06:29:51.972Z,102596.64
2018-02-25T06:30:55.286Z,102590.56
2018-02-25T06:31:58.697Z,102590.58
2018-02-25T06:33:02.030Z,102596.20
2018-02-25T06:34:05.344Z,102593.61
2018-02-25T06:35:08.774Z,102594.48
2018-02-25T06:36:12.178Z,102600.11
2018-02-25T06:37:15.544Z,102599.25
2018-02-25T06:38:18.905Z,102593.61
2018-02-25T06:39:22.265Z,102599.22
2018-02-25T06:40:25.647Z,102598.81
2018-02-25T06:41:29.020Z,102598.80
2018-02-25T06:42:32.352Z,102601.40
2018-02-25T06:43:35.807Z,102600.95
2018-02-25T06:44:39.140Z,102608.31
2018-02-25T06:45:42.462Z,102608.31
2018-02-25T06:46:45.849Z,102603.98
2018-02-25T06:47:49.385Z,102604.00
2018-02-25T06:48:52.815Z,102607.45
2018-02-25T06:49:56.173Z,102605.30
2018-02-25T06:50:59.570Z,102604.00
2018-02-25T06:52:03.001Z,102612.23
2018-02-25T06:53:06.337Z,102616.98
2018-02-25T06:54:09.781Z,102615.27
2018-02-25T06:55:13.079Z,102615.69
2018-02-25T06:56:16.389Z,102610.96
2018-02-25T06:57:19.728Z,102613.12
2018-02-25T06:58:23.140Z,102618.77
2018-02-25T06:59:26.682Z,102615.28
2018-02-25T07:00:30.023Z,102619.18
2018-02-25T07:01:33.421Z,102617.88
2018-02-25T07:02:36.748Z,102620.92
2018-02-25T07:03:40.182Z,102630.47
2018-02-25T07:04:43.640Z,102630.03
2018-02-25T07:05:46.979Z,102630.03
2018-02-25T07:06:50.396Z,102636.97
2018-02-25T07:07:53.737Z,102635.21
2018-02-25T07:08:57.083Z,102639.56
2018-02-25T07:10:00.421Z,102636.98
2018-02-25T07:11:03.728Z,102641.31
2018-02-25T07:12:07.085Z,102637.41
2018-02-25T07:13:10.438Z,102640.42
2018-02-25T07:14:13.778Z,102641.29
2018-02-25T07:15:17.177Z,102646.91
2018-02-25T07:16:20.488Z,102646.05
2018-02-25T07:17:23.886Z,102647.80
2018-02-25T07:18:27.230Z,102644.33
2018-02-25T07:19:30.593Z,102649.08
2018-02-25T07:20:34.004Z,102656.02
2018-02-25T07:21:37.356Z,102651.67
2018-02-25T07:22:40.746Z,102660.80
2018-02-25T07:23:44.095Z,102655.56
2018-02-25T07:24:47.409Z,102652.99
2018-02-25T07:25:50.841Z,102657.31
2018-02-25T07:26:54.261Z,102653.86
2018-02-25T07:27:57.540Z,102653.43
2018-02-25T07:29:01.014Z,102657.78
2018-02-25T07:30:04.340Z,102653.87
2018-02-25T07:31:07.842Z,102656.91
2018-02-25T07:32:11.149Z,102664.71
2018-02-25T07:33:14.468Z,102656.46
2018-02-25T07:34:17.920Z,102658.19
2018-02-25T07:35:21.316Z,102657.77
2018-02-25T07:36:24.657Z,102657.34
2018-02-25T07:37:27.977Z,102654.73
2018-02-25T07:38:31.340Z,102658.65
2018-02-25T07:39:34.683Z,102657.78
2018-02-25T07:40:38.003Z,102659.52
2018-02-25T07:41:41.383Z,102663.84
2018-02-25T07:42:44.776Z,102662.12
2018-02-25T07:43:48.184Z,102660.38
2018-02-25T07:44:51.542Z,102660.81
2018-02-25T07:45:54.838Z,102663.39
2018-02-25T07:46:58.322Z,102661.23
2018-02-25T07:48:01.724Z,102662.53
2018-02-25T07:49:05.086Z,102657.78
2018-02-25T07:50:08.427Z,102666.44
2018-02-25T07:51:11.755Z,102666.46
2018-02-25T07:52:15.121Z,102664.30
2018-02-25T07:53:18.735Z,102666.45
2018-02-25T07:54:22.043Z,102671.22
2018-02-25T07:55:25.357Z,102668.20
2018-02-25T07:56:28.677Z,102676.42
2018-02-25T07:57:32.049Z,102672.10
2018-02-25T07:58:35.387Z,102666.91
2018-02-25T07:59:38.728Z,102667.78
2018-02-25T08:00:42.028Z,102666.46
2018-02-25T08:01:45.334Z,102663.86
2018-02-25T08:02:48.692Z,102667.77
2018-02-25T08:03:52.009Z,102666.03
2018-02-25T08:04:55.358Z,102668.62
2018-02-25T08:05:58.724Z,102669.06
2018-02-25T08:07:02.036Z,102682.06
2018-02-25T08:08:06.345Z,102672.95
2018-02-25T08:09:09.763Z,102673.39
2018-02-25T08:10:13.108Z,102668.20
2018-02-25T08:11:16.499Z,102673.83
2018-02-25T08:12:19.826Z,102679.89
2018-02-25T08:13:23.203Z,102677.32
2018-02-25T08:14:26.680Z,102681.20
2018-02-25T08:15:30.101Z,102680.78
2018-02-25T08:16:33.471Z,102670.83
2018-02-25T08:17:36.773Z,102673.41
2018-02-25T08:18:40.218Z,102683.37
2018-02-25T08:19:43.613Z,102674.27
2018-02-25T08:20:47.076Z,102679.03
2018-02-25T08:21:50.456Z,102675.13
2018-02-25T08:22:53.800Z,102682.08
2018-02-25T08:23:57.195Z,102676.01
2018-02-25T08:25:00.569Z,102686.85
2018-02-25T08:26:03.943Z,102674.70
2018-02-25T08:27:07.269Z,102672.54
2018-02-25T08:28:10.612Z,102688.59
2018-02-25T08:29:14.061Z,102681.22
2018-02-25T08:30:17.427Z,102678.63
2018-02-25T08:31:20.757Z,102680.38
2018-02-25T08:32:24.107Z,102678.63
2018-02-25T08:33:27.573Z,102675.18
2018-02-25T08:34:30.989Z,102682.55
2018-02-25T08:35:34.316Z,102669.53
2018-02-25T08:36:37.760Z,102680.40
2018-02-25T08:37:41.105Z,102676.49
2018-02-25T08:38:44.472Z,102673.03
2018-02-25T08:39:47.960Z,102679.08
2018-02-25T08:40:51.382Z,102674.75
2018-02-25T08:41:54.718Z,102689.50
2018-02-25T08:42:58.030Z,102676.91
2018-02-25T08:44:01.416Z,102677.80
2018-02-25T08:45:04.947Z,102673.87
2018-02-25T08:46:08.265Z,102676.94
2018-02-25T08:47:11.568Z,102674.77
2018-02-25T08:48:14.948Z,102674.75
2018-02-25T08:49:18.364Z,102675.64
2018-02-25T08:50:21.739Z,102668.70
2018-02-25T08:51:25.086Z,102676.06
2018-02-25T08:52:28.446Z,102676.06
2018-02-25T08:53:31.824Z,102687.75
2018-02-25T08:54:35.139Z,102682.56
2018-02-25T08:55:38.570Z,102678.67
2018-02-25T08:56:41.860Z,102676.94
2018-02-25T08:57:45.238Z,102681.27
2018-02-25T08:58:48.613Z,102679.97
2018-02-25T08:59:52.010Z,102681.70
2018-02-25T09:00:55.342Z,102682.56
2018-02-25T09:01:58.713Z,102685.62
2018-02-25T09:03:02.068Z,102683.02
2018-02-25T09:04:05.360Z,102673.48
2018-02-25T09:05:08.708Z,102684.74
2018-02-25T09:06:12.085Z,102688.20
2018-02-25T09:07:15.397Z,102680.41
2018-02-25T09:08:18.773Z,102675.66
2018-02-25T09:09:22.342Z,102678.23
2018-02-25T09:10:25.660Z,102684.32
2018-02-25T09:11:29.048Z,102679.11
2018-02-25T09:12:32.476Z,102683.01
2018-02-25T09:13:35.766Z,102679.99
2018-02-25T09:14:39.069Z,102682.15
2018-02-25T09:15:42.931Z,102681.27
2018-02-25T09:16:46.284Z,102685.19
2018-02-25T09:17:49.617Z,102679.97
2018-02-25T09:18:53.581Z,102683.02
2018-02-25T09:19:56.919Z,102676.50
2018-02-25T09:21:00.427Z,102678.23
2018-02-25T09:22:03.751Z,102672.16
2018-02-25T09:23:07.114Z,102671.30
2018-02-25T09:24:10.612Z,102675.62
2018-02-25T09:25:13.977Z,102677.37
2018-02-25T09:26:17.298Z,102684.73
2018-02-25T09:27:20.615Z,102670.85
2018-02-25T09:28:24.009Z,102680.39
2018-02-25T09:29:27.323Z,102675.64
2018-02-25T09:30:30.684Z,102677.78
2018-02-25T09:31:33.990Z,102671.70
2018-02-25T09:32:37.382Z,102671.28
2018-02-25T09:33:40.680Z,102673.87
2018-02-25T09:34:43.985Z,102671.28
2018-02-25T09:35:47.322Z,102665.20
2018-02-25T09:36:50.632Z,102672.58
2018-02-25T09:37:54.046Z,102666.94
2018-02-25T09:38:57.364Z,102666.91
2018-02-25T09:40:00.690Z,102665.19
2018-02-25T09:41:04.101Z,102666.48
2018-02-25T09:42:07.406Z,102662.59
2018-02-25T09:43:10.766Z,102670.81
2018-02-25T09:44:14.074Z,102667.77
2018-02-25T09:45:17.472Z,102662.57
2018-02-25T09:46:20.782Z,102670.37
2018-02-25T09:47:24.122Z,102661.24
2018-02-25T09:48:27.497Z,102666.03
2018-02-25T09:49:30.843Z,102675.13
2018-02-25T09:50:34.177Z,102662.12
2018-02-25T09:51:37.511Z,102659.92
2018-02-25T09:52:40.864Z,102656.45
2018-02-25T09:53:44.222Z,102659.05
2018-02-25T09:54:47.627Z,102652.52
2018-02-25T09:55:51.067Z,102654.70
2018-02-25T09:56:54.379Z,102658.18
2018-02-25T09:57:57.699Z,102651.65
2018-02-25T09:59:01.583Z,102645.98
2018-02-25T10:00:04.882Z,102649.90
2018-02-25T10:01:08.353Z,102642.94
2018-02-25T10:02:11.718Z,102643.78
2018-02-25T10:03:15.152Z,102650.31
2018-02-25T10:04:18.482Z,102647.69
2018-02-25T10:05:21.808Z,102638.11
2018-02-25T10:06:25.109Z,102643.33
2018-02-25T10:07:28.485Z,102642.01
2018-02-25T10:08:31.872Z,102643.30
2018-02-25T10:09:35.259Z,102639.36
2018-02-25T10:10:38.565Z,102637.63
2018-02-25T10:11:41.893Z,102644.59
2018-02-25T10:12:45.297Z,102641.95
2018-02-25T10:13:48.644Z,102644.13
2018-02-25T10:14:52.028Z,102644.14
2018-02-25T10:15:55.376Z,102645.88
2018-02-25T10:16:58.802Z,102649.77
2018-02-25T10:18:02.101Z,102644.56
2018-02-25T10:19:05.488Z,102648.47
2018-02-25T10:20:08.902Z,102645.86
2018-02-25T10:21:12.216Z,102645.42
2018-02-25T10:22:15.572Z,102649.31
2018-02-25T10:23:18.921Z,102651.05
2018-02-25T10:24:22.216Z,102646.72
2018-02-25T10:25:25.557Z,102645.39
2018-02-25T10:26:28.856Z,102641.92
2018-02-25T10:27:32.210Z,102651.02
2018-02-25T10:28:35.495Z,102641.01
2018-02-25T10:29:38.818Z,102644.05
2018-02-25T10:30:42.326Z,102647.53
2018-02-25T10:31:45.639Z,102644.03
2018-02-25T10:32:48.987Z,102638.82
2018-02-25T10:33:52.356Z,102641.44
2018-02-25T10:34:55.693Z,102641.87
2018-02-25T10:35:59.008Z,102636.63
2018-02-25T10:37:02.391Z,102637.09
2018-02-25T10:38:05.692Z,102633.58
2018-02-25T10:39:09.055Z,102634.45
2018-02-25T10:40:12.480Z,102624.00
2018-02-25T10:41:15.886Z,102635.28
2018-02-25T10:42:19.264Z,102636.59
2018-02-25T10:43:22.615Z,102634.39
2018-02-25T10:44:25.982Z,102633.09
2018-02-25T10:45:29.350Z,102633.94
2018-02-25T10:46:32.711Z,102628.73
2018-02-25T10:47:35.996Z,102627.86
2018-02-25T10:48:39.330Z,102631.31
2018-02-25T10:49:42.629Z,102631.28
2018-02-25T10:50:45.974Z,102629.95
2018-02-25T10:51:49.343Z,102622.58
2018-02-25T10:52:52.756Z,102625.59
2018-02-25T10:53:56.113Z,102626.03
2018-02-25T10:54:59.424Z,102628.17
2018-02-25T10:56:02.784Z,102625.98
2018-02-25T10:57:06.144Z,102624.67
2018-02-25T10:58:09.447Z,102624.64
2018-02-25T10:59:12.746Z,102623.78
2018-02-25T11:00:21.686Z,102621.20
2018-02-25T11:01:25.005Z,102631.22
2018-02-25T11:02:28.361Z,102622.52
2018-02-25T11:03:31.662Z,102623.39
2018-02-25T11:04:34.960Z,102624.70
2018-02-25T11:05:38.348Z,102620.35
2018-02-25T11:06:41.650Z,102614.23
2018-02-25T11:07:45.117Z,102619.45
2018-02-25T11:08:48.520Z,102620.33
2018-02-25T11:09:51.933Z,102611.19
2018-02-25T11:10:55.233Z,102612.03
2018-02-25T11:11:58.582Z,102604.18
2018-02-25T11:13:01.918Z,102613.75
2018-02-25T11:14:05.285Z,102606.77
2018-02-25T11:15:08.671Z,102603.29
2018-02-25T11:16:11.962Z,102598.91
2018-02-25T11:17:15.245Z,102600.66
2018-02-25T11:18:18.624Z,102599.75
2018-02-25T11:19:21.992Z,102598.42
2018-02-25T11:20:25.326Z,102596.68
2018-02-25T11:21:28.681Z,102595.78
2018-02-25T11:22:31.992Z,102596.22
2018-02-25T11:23:35.381Z,102593.17
2018-02-25T11:24:38.753Z,102594.04
2018-02-25T11:25:42.125Z,102582.30
2018-02-25T11:26:45.442Z,102586.17
2018-02-25T11:27:48.835Z,102581.39
2018-02-25T11:28:52.206Z,102577.45
2018-02-25T11:29:55.489Z,102582.67
2018-02-25T11:30:58.801Z,102581.36
2018-02-25T11:32:03.513Z,102578.72
2018-02-25T11:33:06.817Z,102574.34
2018-02-25T11:34:10.180Z,102580.00
2018-02-25T11:35:13.474Z,102573.91
2018-02-25T11:36:16.801Z,102565.61
2018-02-25T11:37:20.206Z,102558.64
2018-02-25T11:38:23.541Z,102560.34
2018-02-25T11:39:26.907Z,102554.66
2018-02-25T11:40:30.237Z,102556.83
2018-02-25T11:41:33.679Z,102553.31
2018-02-25T11:42:36.972Z,102558.07
2018-02-25T11:43:40.333Z,102558.47
2018-02-25T11:44:43.749Z,102556.73
2018-02-25T11:45:47.037Z,102557.13
2018-02-25T11:46:50.380Z,102562.78
2018-02-25T11:47:53.703Z,102560.14
2018-02-25T11:48:57.029Z,102560.58
2018-02-25T11:50:00.398Z,102552.70
2018-02-25T11:51:03.715Z,102554.45
2018-02-25T11:52:07.033Z,102557.45
2018-02-25T11:53:10.329Z,102548.75
2018-02-25T11:54:13.645Z,102544.83
2018-02-25T11:55:17.007Z,102545.70
2018-02-25T11:56:20.344Z,102548.72
2018-02-25T11:57:23.716Z,102547.84
2018-02-25T11:58:27.057Z,102549.98
2018-02-25T11:59:30.516Z,102546.50
2018-02-25T12:00:33.863Z,102547.33
2018-02-25T12:01:37.209Z,102549.06
2018-02-25T12:02:40.494Z,102552.52
2018-02-25T12:03:43.846Z,102552.05